Sawyer, Michigan
Current Conditions -  °F | °C
As of 7:35 AM on Friday 31 Oct 2014 (Local Time) from KMGC Reporting Station
Light Rain Light Rain  
Wind Chill: 34°   Ceiling: 2000
Heat Index: 41°   Visibility: 10mi
Dew Point: 34°   Wind: 12mph
Humidity: 76%   Direction: 330°NNW
Pressure: 30.01"   Gusts: 24mph
Location:  41.89°N, 86.59°W
Report Text: KMGC 311135Z AUTO 33010G21KT 10SM -RA BKN020 BKN028 OVC037 05/01 A3001 RMK AO2
Loading
Personal Weather Stations






























Interactive Weather Map
Tropical Storm Tracking
New forecast layout! Learn more

10-Day Weather Forecast

Advertisements
Track Severe Weather on mobile